createdAt,value
2023-03-12T00:00:51.945Z,3.85
2023-03-12T00:03:19.717Z,4.00
2023-03-12T00:05:48.551Z,3.55
2023-03-12T00:08:15.970Z,3.30
2023-03-12T00:10:43.436Z,3.85
2023-03-12T00:13:10.845Z,3.35
2023-03-12T00:15:38.924Z,4.03
2023-03-12T00:18:06.569Z,3.88
2023-03-12T00:20:34.069Z,3.72
2023-03-12T00:23:02.864Z,4.13
2023-03-12T00:25:30.285Z,3.30
2023-03-12T00:27:57.672Z,3.17
2023-03-12T00:30:27.833Z,3.80
2023-03-12T00:32:55.277Z,3.30
2023-03-12T00:35:22.711Z,3.38
2023-03-12T00:37:50.102Z,3.20
2023-03-12T00:40:19.954Z,3.10
2023-03-12T00:42:47.393Z,2.70
2023-03-12T00:45:14.787Z,2.88
2023-03-12T00:47:42.254Z,3.08
2023-03-12T00:50:10.340Z,3.22
2023-03-12T00:52:37.813Z,2.78
2023-03-12T00:55:05.582Z,2.85
2023-03-12T00:57:34.373Z,2.70
2023-03-12T01:00:01.889Z,2.43
2023-03-12T01:02:29.330Z,2.90
2023-03-12T01:04:56.781Z,3.28
2023-03-12T01:07:24.180Z,2.70
2023-03-12T01:09:51.686Z,2.47
2023-03-12T01:12:19.122Z,3.45
2023-03-12T01:14:47.906Z,2.45
2023-03-12T01:17:15.407Z,2.43
2023-03-12T01:19:42.834Z,2.72
2023-03-12T01:22:10.241Z,2.67
2023-03-12T01:24:37.754Z,2.50
2023-03-12T01:27:05.410Z,2.60
2023-03-12T01:29:32.884Z,2.30
2023-03-12T01:32:01.670Z,2.38
2023-03-12T01:34:30.738Z,2.77
2023-03-12T01:36:58.228Z,2.78
2023-03-12T01:39:25.748Z,2.28
2023-03-12T01:41:53.243Z,2.47
2023-03-12T01:44:20.735Z,2.60
2023-03-12T01:46:48.379Z,2.42
2023-03-12T01:49:18.674Z,2.88
2023-03-12T01:51:47.383Z,2.58
2023-03-12T01:54:17.983Z,2.50
2023-03-12T01:56:46.446Z,2.60
2023-03-12T01:59:16.544Z,2.50
2023-03-12T02:01:44.445Z,2.90
2023-03-12T02:04:12.374Z,2.85
2023-03-12T02:06:43.779Z,2.72
2023-03-12T02:09:12.551Z,2.75
2023-03-12T02:11:40.011Z,2.40
2023-03-12T02:14:07.476Z,2.83
2023-03-12T02:16:35.044Z,2.72
2023-03-12T02:19:04.113Z,2.53
2023-03-12T02:21:33.653Z,2.47
2023-03-12T02:24:04.436Z,2.78
2023-03-12T02:26:34.391Z,2.95
2023-03-12T02:29:01.940Z,2.80
2023-03-12T02:31:30.654Z,2.85
2023-03-12T02:33:58.647Z,3.13
2023-03-12T02:36:26.140Z,2.97
2023-03-12T02:38:53.980Z,3.00
2023-03-12T02:41:22.819Z,3.00
2023-03-12T02:43:54.385Z,2.85
2023-03-12T02:46:21.976Z,3.10
2023-03-12T02:48:49.497Z,3.40
2023-03-12T02:51:16.923Z,3.00
2023-03-12T02:53:44.371Z,3.28
2023-03-12T02:56:11.783Z,3.00
2023-03-12T02:58:39.202Z,2.85
2023-03-12T03:01:08.026Z,2.90
2023-03-12T03:03:35.459Z,2.97
2023-03-12T03:06:02.874Z,2.78
2023-03-12T03:08:30.298Z,3.35
2023-03-12T03:10:57.750Z,3.10
2023-03-12T03:13:25.194Z,2.92
2023-03-12T03:15:52.692Z,3.10
2023-03-12T03:18:21.570Z,2.72
2023-03-12T03:20:55.638Z,2.97
2023-03-12T03:23:23.049Z,2.92
2023-03-12T03:25:50.486Z,2.83
2023-03-12T03:28:17.972Z,2.42
2023-03-12T03:30:45.491Z,3.30
2023-03-12T03:33:13.254Z,2.63
2023-03-12T03:35:42.060Z,2.60
2023-03-12T03:38:09.490Z,2.67
2023-03-12T03:40:36.902Z,2.55
2023-03-12T03:43:04.368Z,2.97
2023-03-12T03:45:31.870Z,2.47
2023-03-12T03:47:59.327Z,2.70
2023-03-12T03:50:26.814Z,2.75
2023-03-12T03:52:55.578Z,2.38
2023-03-12T03:55:23.012Z,2.80
2023-03-12T03:57:50.527Z,2.70
2023-03-12T04:00:18.281Z,2.55
2023-03-12T04:02:45.913Z,2.50
2023-03-12T04:05:13.427Z,2.67
2023-03-12T04:07:40.936Z,2.67
2023-03-12T04:10:10.650Z,2.67
2023-03-12T04:15:06.088Z,2.38
2023-03-12T04:17:33.537Z,2.60
2023-03-12T04:20:00.957Z,2.42
2023-03-12T04:22:28.391Z,2.60
2023-03-12T04:24:55.920Z,2.38
2023-03-12T04:27:24.741Z,2.65
2023-03-12T04:29:52.161Z,2.55
2023-03-12T04:32:19.658Z,2.45
2023-03-12T04:34:47.078Z,2.47
2023-03-12T04:37:14.875Z,2.80
2023-03-12T04:39:42.469Z,2.72
2023-03-12T04:42:10.285Z,3.17
2023-03-12T04:44:40.903Z,2.38
2023-03-12T04:47:08.398Z,2.60
2023-03-12T04:49:35.821Z,2.95
2023-03-12T04:52:03.325Z,3.78
2023-03-12T04:54:31.909Z,2.40
2023-03-12T04:56:59.341Z,2.60
2023-03-12T04:59:26.798Z,2.53
2023-03-12T05:01:55.647Z,2.60
2023-03-12T05:04:23.125Z,3.05
2023-03-12T05:06:50.598Z,2.65
2023-03-12T05:09:18.059Z,2.50
2023-03-12T05:11:45.499Z,2.35
2023-03-12T05:14:12.939Z,2.90
2023-03-12T05:16:40.533Z,2.47
2023-03-12T05:19:09.387Z,2.45
2023-03-12T05:21:36.923Z,3.25
2023-03-12T05:24:04.501Z,2.53
2023-03-12T05:26:33.046Z,2.70
2023-03-12T05:29:01.048Z,2.50
2023-03-12T05:31:32.957Z,2.67
2023-03-12T05:34:00.666Z,2.40
2023-03-12T05:36:29.549Z,2.90
2023-03-12T13:01:38.539Z,4.53
2023-03-12T13:04:07.627Z,6.13
